Time;durP1;ratioP1;P1;durP2;ratioP2;P2;SDS_P1;SDS_P2;PMS_P1;PMS_P2;Temp;Humidity;BMP_temperature;BMP_pressure;BME280_temperature;BME280_humidity;BME280_pressure;Samples;Min_cycle;Max_cycle;Signal;HPM_P1;HPM_P2
2022/10/20 00:01:37;;;;;;;;;;;;;;;;;;5030539;28;935;-68
2022/10/20 00:04:02;;;;;;;;;;;;;;;;;;5013241;28;1285;-68
2022/10/20 00:06:29;;;;;;;;;;;;;;;;;;5012549;28;1233;-68
2022/10/20 00:08:55;;;;;;;;;;;;;;;;;;5031106;28;1930;-68
2022/10/20 00:11:21;;;;;;;;;;;;;;;;;;5012792;28;1235;-68
2022/10/20 00:13:48;;;;;;;;;;;;;;;;;;5030505;28;920;-67
2022/10/20 00:16:13;;;;;;;;;;;;;;;;;;5030778;28;872;-67
2022/10/20 00:18:39;;;;;;;;;;;;;;;;;;5030629;28;940;-67
2022/10/20 00:21:08;;;;;;;;;;;;;;;;;;5030572;28;849;-67
2022/10/20 00:23:34;;;;;;;;;;;;;;;;;;5012449;28;1126;-67
2022/10/20 00:26:03;;;;;;;;;;;;;;;;;;5030779;28;833;-67
2022/10/20 00:28:28;;;;;;;;;;;;;;;;;;5012212;28;1311;-67
2022/10/20 00:30:55;;;;;;;;;;;;;;;;;;5030909;28;1969;-67
2022/10/20 00:33:20;;;;;;;;;;;;;;;;;;5030588;28;1212;-67
2022/10/20 00:35:45;;;;;;;;;;;;;;;;;;5029240;28;869;-68
2022/10/20 00:38:11;;;;;;;;;;;;;;;;;;5029409;28;873;-68
2022/10/20 00:40:36;;;;;;;;;;;;;;;;;;5027895;28;822;-68
2022/10/20 00:43:01;;;;;;;;;;;;;;;;;;5030666;28;893;-68
2022/10/20 00:45:27;;;;;;;;;;;;;;;;;;5030453;28;964;-68
2022/10/20 00:47:59;;;;;;;;;;;;;;;;;;5029657;28;863;-68
2022/10/20 00:50:26;;;;;;;;;;;;;;;;;;5030161;28;1969;-68
2022/10/20 00:52:53;;;;;;;;;;;;;;;;;;5030624;28;1401;-68
2022/10/20 00:55:20;;;;;;;;;;;;;;;;;;5012669;28;1354;-68
2022/10/20 00:57:48;;;;;;;;;;;;;;;;;;5030136;28;848;-68
2022/10/20 01:00:14;;;;;;;;;;;;;;;;;;5012371;28;953;-66
2022/10/20 01:02:39;;;;;;;;;;;;;;;;;;5012487;28;1220;-68
2022/10/20 01:05:05;;;;;;;;;;;;;;;;;;5030272;28;849;-68
2022/10/20 01:07:30;;;;;;;;;;;;;;;;;;5029545;28;881;-68
2022/10/20 01:09:55;;;;;;;;;;;;;;;;;;5013267;28;1902;-68
2022/10/20 01:12:30;;;;;;;;;;;;;;;;;;5031179;28;821;-68
2022/10/20 01:15:06;;;;;;;;;;;;;;;;;;5013597;28;1334;-67
2022/10/20 01:17:41;;;;;;;;;;;;;;;;;;5012785;28;1365;-68
2022/10/20 01:20:12;;;;;;;;;;;;;;;;;;5013118;28;1200;-68
2022/10/20 01:22:56;;;;;;;;;;;;;;;;;;5030435;28;888;-68
2022/10/20 01:25:30;;;;;;;;;;;;;;;;;;5030452;28;945;-68
2022/10/20 01:28:06;;;;;;;;;;;;;;;;;;5029792;28;916;-68
2022/10/20 01:30:37;;;;;;;;;;;;;;;;;;5028804;28;1906;-68
2022/10/20 01:33:02;;;;;;;;;;;;;;;;;;5029897;28;1150;-68
2022/10/20 01:35:59;;;;;;;;;;;;;;;;;;5029547;28;868;-68
2022/10/20 01:38:33;;;;;;;;;;;;;;;;;;5006603;28;1055;-68
2022/10/20 01:40:59;;;;;;;;;;;;;;;;;;5012218;28;1323;-68
2022/10/20 01:43:25;;;;;;;;;;;;;;;;;;5029591;28;928;-68
2022/10/20 01:45:52;;;;;;;;;;;;;;;;;;5011942;28;1083;-68
2022/10/20 01:48:20;;;;;;;;;;;;;;;;;;5029767;28;908;-68
2022/10/20 01:50:46;;;;;;;;;;;;;;;;;;5011749;28;1912;-68
2022/10/20 01:53:11;;;;;;;;;;;;;;;;;;5032341;28;975;-68
2022/10/20 01:55:37;;;;;;;;;;;;;;;;;;5032675;28;884;-66
2022/10/20 01:58:22;;;;;;;;;;;;;;;;;;5033999;28;762;-66
2022/10/20 02:00:48;;;;;;;;;;;;;;;;;;5014952;28;1228;-66
2022/10/20 02:03:35;;;;;;;;;;;;;;;;;;5033408;28;960;-67
2022/10/20 02:06:09;;;;;;;;;;;;;;;;;;5033203;28;856;-66
2022/10/20 02:08:40;;;;;;;;;;;;;;;;;;5014717;28;1316;-66
2022/10/20 02:11:08;;;;;;;;;;;;;;;;;;5015586;28;1875;-66
2022/10/20 02:13:35;;;;;;;;;;;;;;;;;;5032609;28;928;-66
2022/10/20 02:16:03;;;;;;;;;;;;;;;;;;5015352;28;1331;-66
2022/10/20 02:18:34;;;;;;;;;;;;;;;;;;5032352;28;876;-66
2022/10/20 02:21:01;;;;;;;;;;;;;;;;;;5033027;28;857;-66
2022/10/20 02:23:29;;;;;;;;;;;;;;;;;;5032609;28;770;-66
2022/10/20 02:25:54;;;;;;;;;;;;;;;;;;5033195;28;896;-66
2022/10/20 02:28:20;;;;;;;;;;;;;;;;;;5033229;28;912;-66
2022/10/20 02:30:46;;;;;;;;;;;;;;;;;;5031079;28;1961;-66
2022/10/20 02:33:12;;;;;;;;;;;;;;;;;;5031939;28;1043;-66
2022/10/20 02:35:40;;;;;;;;;;;;;;;;;;5013557;28;1315;-66
2022/10/20 02:38:06;;;;;;;;;;;;;;;;;;5031977;28;1161;-66
2022/10/20 02:40:31;;;;;;;;;;;;;;;;;;5029678;28;1153;-66
2022/10/20 02:42:56;;;;;;;;;;;;;;;;;;5031998;28;1157;-66
2022/10/20 02:45:22;;;;;;;;;;;;;;;;;;5031428;28;1065;-66
2022/10/20 02:47:47;;;;;;;;;;;;;;;;;;5032516;28;995;-66
2022/10/20 02:50:12;;;;;;;;;;;;;;;;;;5031152;28;1957;-66
2022/10/20 02:52:37;;;;;;;;;;;;;;;;;;5014087;28;1172;-66
2022/10/20 02:55:03;;;;;;;;;;;;;;;;;;5014447;28;1290;-66
2022/10/20 02:57:29;;;;;;;;;;;;;;;;;;5031678;28;923;-66
2022/10/20 02:59:54;;;;;;;;;;;;;;;;;;5031876;28;975;-66
2022/10/20 03:02:19;;;;;;;;;;;;;;;;;;5031973;28;832;-67
2022/10/20 03:04:45;;;;;;;;;;;;;;;;;;5029640;28;991;-66
2022/10/20 03:07:10;;;;;;;;;;;;;;;;;;5032377;28;1078;-66
2022/10/20 03:09:36;;;;;;;;;;;;;;;;;;5031196;28;1965;-66
2022/10/20 03:12:01;;;;;;;;;;;;;;;;;;5031941;28;948;-66
2022/10/20 03:14:27;;;;;;;;;;;;;;;;;;5031642;28;925;-66
2022/10/20 03:16:52;;;;;;;;;;;;;;;;;;5031608;28;907;-68
2022/10/20 03:19:17;;;;;;;;;;;;;;;;;;5032075;28;798;-68
2022/10/20 03:21:43;;;;;;;;;;;;;;;;;;5013092;28;1156;-66
2022/10/20 03:24:08;;;;;;;;;;;;;;;;;;5030520;28;865;-69
2022/10/20 03:26:33;;;;;;;;;;;;;;;;;;5013201;28;1164;-68
2022/10/20 03:28:58;;;;;;;;;;;;;;;;;;5013596;28;1898;-68
2022/10/20 03:31:24;;;;;;;;;;;;;;;;;;5031117;28;893;-68
2022/10/20 03:33:49;;;;;;;;;;;;;;;;;;5031131;28;1264;-68
2022/10/20 03:36:14;;;;;;;;;;;;;;;;;;5030564;28;1071;-69
2022/10/20 03:38:41;;;;;;;;;;;;;;;;;;5029960;28;1043;-68
2022/10/20 03:41:07;;;;;;;;;;;;;;;;;;5013942;28;1213;-68
2022/10/20 03:43:32;;;;;;;;;;;;;;;;;;5030646;28;972;-68
2022/10/20 03:46:02;;;;;;;;;;;;;;;;;;5031630;28;837;-68
2022/10/20 03:48:27;;;;;;;;;;;;;;;;;;5030682;28;924;-68
2022/10/20 03:50:53;;;;;;;;;;;;;;;;;;5013924;28;1991;-66
2022/10/20 03:53:18;;;;;;;;;;;;;;;;;;5030272;28;837;-68
2022/10/20 03:55:43;;;;;;;;;;;;;;;;;;5032069;28;814;-68
2022/10/20 03:58:08;;;;;;;;;;;;;;;;;;5032473;28;973;-68
2022/10/20 04:00:34;;;;;;;;;;;;;;;;;;5030167;28;919;-68
2022/10/20 04:02:59;;;;;;;;;;;;;;;;;;5014273;28;1412;-68
2022/10/20 04:05:24;;;;;;;;;;;;;;;;;;5031510;28;912;-68
2022/10/20 04:07:50;;;;;;;;;;;;;;;;;;5031992;28;904;-68
2022/10/20 04:10:15;;;;;;;;;;;;;;;;;;5032038;28;1965;-68
2022/10/20 04:12:40;;;;;;;;;;;;;;;;;;5029390;28;936;-68
2022/10/20 04:15:06;;;;;;;;;;;;;;;;;;5030864;28;889;-68
2022/10/20 04:17:32;;;;;;;;;;;;;;;;;;5028082;28;846;-68
2022/10/20 04:19:57;;;;;;;;;;;;;;;;;;5030664;28;869;-68
2022/10/20 04:22:22;;;;;;;;;;;;;;;;;;5030647;28;845;-69
2022/10/20 04:24:48;;;;;;;;;;;;;;;;;;5011957;28;1286;-68
2022/10/20 04:27:13;;;;;;;;;;;;;;;;;;5030536;28;912;-68
2022/10/20 04:29:38;;;;;;;;;;;;;;;;;;5029976;28;1973;-68
2022/10/20 04:32:03;;;;;;;;;;;;;;;;;;5012472;28;1194;-68
2022/10/20 04:34:29;;;;;;;;;;;;;;;;;;5013169;28;1272;-69
2022/10/20 04:36:54;;;;;;;;;;;;;;;;;;5012694;28;1156;-68
2022/10/20 04:39:19;;;;;;;;;;;;;;;;;;5012644;28;1524;-68
2022/10/20 04:41:45;;;;;;;;;;;;;;;;;;5028338;28;901;-68
2022/10/20 04:44:10;;;;;;;;;;;;;;;;;;5013166;28;1216;-68
2022/10/20 04:46:35;;;;;;;;;;;;;;;;;;5029752;28;951;-68
2022/10/20 04:49:00;;;;;;;;;;;;;;;;;;5029098;28;1975;-67
2022/10/20 04:51:26;;;;;;;;;;;;;;;;;;5012320;28;1342;-66
2022/10/20 04:53:51;;;;;;;;;;;;;;;;;;5029894;28;932;-66
2022/10/20 04:56:18;;;;;;;;;;;;;;;;;;5028963;28;849;-67
2022/10/20 04:58:56;;;;;;;;;;;;;;;;;;5029476;28;845;-66
2022/10/20 05:01:23;;;;;;;;;;;;;;;;;;5030521;28;904;-66
2022/10/20 05:03:48;;;;;;;;;;;;;;;;;;5011797;28;1389;-66
2022/10/20 05:06:15;;;;;;;;;;;;;;;;;;5030259;28;960;-67
2022/10/20 05:08:41;;;;;;;;;;;;;;;;;;5011862;28;1307;-67
2022/10/20 05:11:07;;;;;;;;;;;;;;;;;;5030315;28;1973;-67
2022/10/20 05:13:33;;;;;;;;;;;;;;;;;;5029326;28;821;-67
2022/10/20 05:15:58;;;;;;;;;;;;;;;;;;5030314;28;802;-67
2022/10/20 05:18:23;;;;;;;;;;;;;;;;;;5030325;28;996;-67
2022/10/20 05:20:49;;;;;;;;;;;;;;;;;;5012174;28;1216;-67
2022/10/20 05:23:14;;;;;;;;;;;;;;;;;;5012749;28;1193;-67
2022/10/20 05:25:39;;;;;;;;;;;;;;;;;;5028493;28;829;-67
2022/10/20 05:28:05;;;;;;;;;;;;;;;;;;5015933;28;1287;-67
2022/10/20 05:30:30;;;;;;;;;;;;;;;;;;5034609;28;1959;-67
2022/10/20 05:32:56;;;;;;;;;;;;;;;;;;5033588;28;1410;-67
2022/10/20 05:35:21;;;;;;;;;;;;;;;;;;5035083;28;841;-67
2022/10/20 05:37:46;;;;;;;;;;;;;;;;;;5034246;28;833;-67
2022/10/20 05:40:11;;;;;;;;;;;;;;;;;;5016761;28;1212;-67
2022/10/20 05:42:37;;;;;;;;;;;;;;;;;;5032511;28;1197;-67
2022/10/20 05:45:03;;;;;;;;;;;;;;;;;;5015778;28;1177;-67
2022/10/20 05:47:28;;;;;;;;;;;;;;;;;;5033438;28;1011;-67
2022/10/20 05:49:53;;;;;;;;;;;;;;;;;;5014872;28;1910;-66
2022/10/20 05:52:19;;;;;;;;;;;;;;;;;;5015403;28;1169;-66
2022/10/20 05:54:44;;;;;;;;;;;;;;;;;;5031505;28;1173;-67
2022/10/20 05:57:09;;;;;;;;;;;;;;;;;;5015059;28;1286;-67
2022/10/20 05:59:35;;;;;;;;;;;;;;;;;;5014931;28;1203;-67
2022/10/20 06:02:00;;;;;;;;;;;;;;;;;;5014884;28;1145;-67
2022/10/20 06:04:27;;;;;;;;;;;;;;;;;;5031692;28;874;-67
2022/10/20 06:06:52;;;;;;;;;;;;;;;;;;5032267;28;949;-67
2022/10/20 06:09:18;;;;;;;;;;;;;;;;;;5032453;28;1902;-66
2022/10/20 06:11:43;;;;;;;;;;;;;;;;;;5032347;28;822;-66
2022/10/20 06:14:09;;;;;;;;;;;;;;;;;;5033061;28;866;-70
2022/10/20 06:16:34;;;;;;;;;;;;;;;;;;4997732;28;1361;-69
2022/10/20 06:19:00;;;;;;;;;;;;;;;;;;5032164;28;1145;-69
2022/10/20 06:21:26;;;;;;;;;;;;;;;;;;5014716;28;1252;-69
2022/10/20 06:23:52;;;;;;;;;;;;;;;;;;5031801;28;817;-69
2022/10/20 06:26:19;;;;;;;;;;;;;;;;;;5014758;28;1425;-69
2022/10/20 06:28:45;;;;;;;;;;;;;;;;;;5014133;28;1209;-69
2022/10/20 06:31:15;;;;;;;;;;;;;;;;;;5032344;28;1968;-69
2022/10/20 06:33:40;;;;;;;;;;;;;;;;;;5013036;28;1371;-69
2022/10/20 06:36:06;;;;;;;;;;;;;;;;;;5031063;28;986;-69
2022/10/20 06:38:32;;;;;;;;;;;;;;;;;;5030721;28;817;-69
2022/10/20 06:41:00;;;;;;;;;;;;;;;;;;5031621;28;995;-69
2022/10/20 06:43:26;;;;;;;;;;;;;;;;;;5031997;28;896;-69
2022/10/20 06:45:55;;;;;;;;;;;;;;;;;;5031727;28;829;-69
2022/10/20 06:48:20;;;;;;;;;;;;;;;;;;5015541;28;1188;-69
2022/10/20 06:50:45;;;;;;;;;;;;;;;;;;5032658;28;1918;-69
2022/10/20 06:53:11;;;;;;;;;;;;;;;;;;5015851;28;1208;-69
2022/10/20 06:55:36;;;;;;;;;;;;;;;;;;5014810;28;1190;-69
2022/10/20 06:58:01;;;;;;;;;;;;;;;;;;5031695;28;802;-69
2022/10/20 07:00:27;;;;;;;;;;;;;;;;;;5031481;28;897;-69
2022/10/20 07:02:52;;;;;;;;;;;;;;;;;;5031574;28;947;-70
2022/10/20 07:05:18;;;;;;;;;;;;;;;;;;5030882;28;929;-69
2022/10/20 07:07:46;;;;;;;;;;;;;;;;;;5031565;28;927;-69
2022/10/20 07:10:11;;;;;;;;;;;;;;;;;;5013757;28;1898;-69
2022/10/20 07:12:36;;;;;;;;;;;;;;;;;;5031152;28;956;-69
2022/10/20 07:15:02;;;;;;;;;;;;;;;;;;5013771;28;1193;-69
2022/10/20 07:17:27;;;;;;;;;;;;;;;;;;5031496;28;833;-69
2022/10/20 07:19:52;;;;;;;;;;;;;;;;;;5031034;28;939;-69
2022/10/20 07:22:18;;;;;;;;;;;;;;;;;;5030176;28;841;-69
2022/10/20 07:24:43;;;;;;;;;;;;;;;;;;5012591;28;1342;-69
2022/10/20 07:27:08;;;;;;;;;;;;;;;;;;5030164;28;798;-70
2022/10/20 07:29:34;;;;;;;;;;;;;;;;;;5013022;28;1965;-69
2022/10/20 07:31:59;;;;;;;;;;;;;;;;;;5031010;28;1072;-70
2022/10/20 07:34:24;;;;;;;;;;;;;;;;;;5031268;28;993;-70
2022/10/20 07:36:50;;;;;;;;;;;;;;;;;;5029520;28;774;-70
2022/10/20 07:39:15;;;;;;;;;;;;;;;;;;5029958;28;861;-70
2022/10/20 07:41:42;;;;;;;;;;;;;;;;;;5013004;28;1180;-69
2022/10/20 07:44:08;;;;;;;;;;;;;;;;;;5029670;28;825;-70
2022/10/20 07:46:33;;;;;;;;;;;;;;;;;;5030683;28;983;-70
2022/10/20 07:48:59;;;;;;;;;;;;;;;;;;5029609;28;924;-69
2022/10/20 07:51:29;;;;;;;;;;;;;;;;;;5013028;28;1902;-69
2022/10/20 07:53:56;;;;;;;;;;;;;;;;;;5010525;28;1401;-68
2022/10/20 07:56:22;;;;;;;;;;;;;;;;;;5027653;28;1330;-78
2022/10/20 07:58:48;;;;;;;;;;;;;;;;;;5012687;28;1387;-71
2022/10/20 08:01:13;;;;;;;;;;;;;;;;;;5013324;28;1169;-72
2022/10/20 08:03:38;;;;;;;;;;;;;;;;;;5013319;28;1400;-74
2022/10/20 08:06:04;;;;;;;;;;;;;;;;;;5013389;28;1295;-73
2022/10/20 08:08:29;;;;;;;;;;;;;;;;;;5009557;28;1564;-71
2022/10/20 08:10:56;;;;;;;;;;;;;;;;;;5011679;28;1899;-72
2022/10/20 08:13:22;;;;;;;;;;;;;;;;;;5030138;28;1169;-71
2022/10/20 08:15:47;;;;;;;;;;;;;;;;;;5030513;28;1114;-72
2022/10/20 08:18:12;;;;;;;;;;;;;;;;;;5029187;28;1266;-71
2022/10/20 08:20:37;;;;;;;;;;;;;;;;;;5029008;28;986;-72
2022/10/20 08:23:03;;;;;;;;;;;;;;;;;;5031908;28;865;-71
2022/10/20 08:25:28;;;;;;;;;;;;;;;;;;5031393;28;817;-72
2022/10/20 08:27:53;;;;;;;;;;;;;;;;;;5014003;28;1260;-73
2022/10/20 08:30:19;;;;;;;;;;;;;;;;;;5031821;28;1894;-70
2022/10/20 08:32:44;;;;;;;;;;;;;;;;;;5029676;28;1157;-70
2022/10/20 08:35:10;;;;;;;;;;;;;;;;;;5013421;28;1547;-71
2022/10/20 08:37:35;;;;;;;;;;;;;;;;;;5012367;28;1233;-72
2022/10/20 08:40:03;;;;;;;;;;;;;;;;;;5029146;28;773;-71
2022/10/20 08:42:32;;;;;;;;;;;;;;;;;;5012575;28;898;-71
2022/10/20 08:44:58;;;;;;;;;;;;;;;;;;5013108;28;1192;-71
2022/10/20 08:47:33;;;;;;;;;;;;;;;;;;5013066;28;1300;-72
2022/10/20 08:49:58;;;;;;;;;;;;;;;;;;5030454;28;1953;-71
2022/10/20 08:52:25;;;;;;;;;;;;;;;;;;5012596;28;1323;-71
2022/10/20 08:54:52;;;;;;;;;;;;;;;;;;5029555;28;833;-72
2022/10/20 08:57:22;;;;;;;;;;;;;;;;;;5030397;28;908;-73
2022/10/20 08:59:50;;;;;;;;;;;;;;;;;;5011897;28;1389;-72
2022/10/20 09:02:16;;;;;;;;;;;;;;;;;;5031414;28;884;-72
2022/10/20 09:04:46;;;;;;;;;;;;;;;;;;5016350;28;1304;-72
2022/10/20 09:07:20;;;;;;;;;;;;;;;;;;5016585;28;1221;-72
2022/10/20 09:09:46;;;;;;;;;;;;;;;;;;5033731;28;1894;-72
2022/10/20 09:12:13;;;;;;;;;;;;;;;;;;5016685;28;1122;-73
2022/10/20 09:14:39;;;;;;;;;;;;;;;;;;5031665;28;1225;-72
2022/10/20 09:17:05;;;;;;;;;;;;;;;;;;5033480;28;1145;-72
2022/10/20 09:19:30;;;;;;;;;;;;;;;;;;5015954;28;1133;-71
2022/10/20 09:21:57;;;;;;;;;;;;;;;;;;5032753;28;1052;-72
2022/10/20 09:24:25;;;;;;;;;;;;;;;;;;5016725;28;1181;-74
2022/10/20 09:26:51;;;;;;;;;;;;;;;;;;5033345;28;857;-75
2022/10/20 09:29:20;;;;;;;;;;;;;;;;;;5034526;28;1894;-72
2022/10/20 09:31:46;;;;;;;;;;;;;;;;;;5034202;28;1062;-67
2022/10/20 09:34:31;;;;;;;;;;;;;;;;;;5034575;28;1258;-70
2022/10/20 09:36:56;;;;;;;;;;;;;;;;;;5016110;28;1193;-71
2022/10/20 09:39:30;;;;;;;;;;;;;;;;;;5016793;28;1428;-72
2022/10/20 09:42:03;;;;;;;;;;;;;;;;;;5033901;28;925;-72
2022/10/20 09:44:31;;;;;;;;;;;;;;;;;;5034592;28;842;-71
2022/10/20 09:46:57;;;;;;;;;;;;;;;;;;5016121;28;1358;-71
2022/10/20 09:49:36;;;;;;;;;;;;;;;;;;5034124;28;1902;-70
2022/10/20 09:52:03;;;;;;;;;;;;;;;;;;5033741;28;735;-71
2022/10/20 09:54:29;;;;;;;;;;;;;;;;;;5013852;28;1205;-70
2022/10/20 09:57:03;;;;;;;;;;;;;;;;;;5014258;28;1248;-71
2022/10/20 09:59:37;;;;;;;;;;;;;;;;;;5016010;28;1593;-70
2022/10/20 10:02:02;;;;;;;;;;;;;;;;;;5016165;28;1355;-71
2022/10/20 10:04:32;;;;;;;;;;;;;;;;;;5016145;28;1415;-71
2022/10/20 10:06:57;;;;;;;;;;;;;;;;;;5015248;28;1304;-71
2022/10/20 10:09:26;;;;;;;;;;;;;;;;;;5031408;28;1952;-71
2022/10/20 10:11:58;;;;;;;;;;;;;;;;;;5032475;28;1173;-71
2022/10/20 10:14:24;;;;;;;;;;;;;;;;;;5014812;28;1204;-71
2022/10/20 10:16:49;;;;;;;;;;;;;;;;;;5014999;28;1176;-71
2022/10/20 10:19:16;;;;;;;;;;;;;;;;;;5015357;28;1302;-71
2022/10/20 10:21:47;;;;;;;;;;;;;;;;;;5014994;28;1589;-71
2022/10/20 10:24:31;;;;;;;;;;;;;;;;;;5015184;28;1310;-71
2022/10/20 10:26:56;;;;;;;;;;;;;;;;;;5014741;28;1221;-72
2022/10/20 10:29:29;;;;;;;;;;;;;;;;;;5015465;28;1902;-73
2022/10/20 10:32:02;;;;;;;;;;;;;;;;;;5032487;28;923;-71
2022/10/20 10:34:30;;;;;;;;;;;;;;;;;;4998819;28;1622;-71
2022/10/20 10:36:56;;;;;;;;;;;;;;;;;;5032256;28;853;-71
2022/10/20 10:39:21;;;;;;;;;;;;;;;;;;5031387;28;907;-71
2022/10/20 10:41:46;;;;;;;;;;;;;;;;;;5032494;28;927;-71
2022/10/20 10:44:18;;;;;;;;;;;;;;;;;;5032593;28;976;-71
2022/10/20 10:46:53;;;;;;;;;;;;;;;;;;5014797;28;1277;-71
2022/10/20 10:49:39;;;;;;;;;;;;;;;;;;5014613;28;1996;-71
2022/10/20 10:52:04;;;;;;;;;;;;;;;;;;5032718;28;928;-72
2022/10/20 10:54:29;;;;;;;;;;;;;;;;;;5031966;28;1212;-72
2022/10/20 10:57:04;;;;;;;;;;;;;;;;;;5011632;28;1420;-71
2022/10/20 10:59:39;;;;;;;;;;;;;;;;;;5011623;28;1420;-71
2022/10/20 11:02:08;;;;;;;;;;;;;;;;;;5013659;28;1198;-71
2022/10/20 11:04:47;;;;;;;;;;;;;;;;;;5014515;28;1359;-71
2022/10/20 11:07:23;;;;;;;;;;;;;;;;;;5014547;28;1211;-71
2022/10/20 11:09:52;;;;;;;;;;;;;;;;;;5014158;28;1898;-70
2022/10/20 11:12:36;;;;;;;;;;;;;;;;;;5031889;28;850;-71
2022/10/20 11:15:16;;;;;;;;;;;;;;;;;;5014032;28;1210;-71
2022/10/20 11:17:52;;;;;;;;;;;;;;;;;;5014057;28;1311;-72
2022/10/20 11:20:33;;;;;;;;;;;;;;;;;;5032078;28;893;-72
2022/10/20 11:23:17;;;;;;;;;;;;;;;;;;5033003;28;908;-71
2022/10/20 11:25:47;;;;;;;;;;;;;;;;;;5032066;28;872;-72
2022/10/20 11:28:35;;;;;;;;;;;;;;;;;;5015041;28;1167;-71
2022/10/20 11:31:03;;;;;;;;;;;;;;;;;;5015044;28;1895;-72
2022/10/20 11:33:34;;;;;;;;;;;;;;;;;;5032329;28;1236;-71
2022/10/20 11:36:03;;;;;;;;;;;;;;;;;;5032633;28;798;-71
2022/10/20 11:38:40;;;;;;;;;;;;;;;;;;5030744;28;1466;-71
2022/10/20 11:41:09;;;;;;;;;;;;;;;;;;5015115;28;1068;-72
2022/10/20 11:43:54;;;;;;;;;;;;;;;;;;5014207;28;1430;-72
2022/10/20 11:46:29;;;;;;;;;;;;;;;;;;5032111;28;897;-71
2022/10/20 11:48:54;;;;;;;;;;;;;;;;;;5032352;28;829;-71
2022/10/20 11:51:19;;;;;;;;;;;;;;;;;;5014094;28;1914;-73
2022/10/20 11:53:45;;;;;;;;;;;;;;;;;;5013572;28;1176;-72
2022/10/20 11:56:13;;;;;;;;;;;;;;;;;;5013983;28;1307;-72
2022/10/20 11:58:38;;;;;;;;;;;;;;;;;;5032213;28;1221;-72
2022/10/20 12:01:27;;;;;;;;;;;;;;;;;;5013747;28;1153;-72
2022/10/20 12:04:08;;;;;;;;;;;;;;;;;;5013633;28;1229;-72
2022/10/20 12:06:49;;;;;;;;;;;;;;;;;;5031450;28;911;-72
2022/10/20 12:09:26;;;;;;;;;;;;;;;;;;5031492;28;900;-72
2022/10/20 12:11:56;;;;;;;;;;;;;;;;;;5013929;28;1252;-72
2022/10/20 12:14:38;;;;;;;;;;;;;;;;;;5013911;28;1292;-72
2022/10/20 12:17:12;;;;;;;;;;;;;;;;;;5031610;28;1067;-72
2022/10/20 12:19:38;;;;;;;;;;;;;;;;;;5013530;28;1398;-72
2022/10/20 12:22:03;;;;;;;;;;;;;;;;;;5014372;28;1376;-73
2022/10/20 12:24:31;;;;;;;;;;;;;;;;;;5013822;28;1327;-73
2022/10/20 12:27:06;;;;;;;;;;;;;;;;;;5013260;28;1611;-73
2022/10/20 12:29:31;;;;;;;;;;;;;;;;;;5014459;28;1902;-73
2022/10/20 12:32:19;;;;;;;;;;;;;;;;;;5031357;28;873;-73
2022/10/20 12:34:45;;;;;;;;;;;;;;;;;;5014246;28;1330;-72
2022/10/20 12:37:18;;;;;;;;;;;;;;;;;;5030392;28;1043;-73
2022/10/20 12:39:44;;;;;;;;;;;;;;;;;;5013208;28;1212;-73
2022/10/20 12:42:21;;;;;;;;;;;;;;;;;;5013990;28;1102;-73
2022/10/20 12:44:46;;;;;;;;;;;;;;;;;;5030782;28;861;-72
2022/10/20 12:47:32;;;;;;;;;;;;;;;;;;5013441;28;1300;-72
2022/10/20 12:50:06;;;;;;;;;;;;;;;;;;5034250;28;1971;-72
2022/10/20 12:52:36;;;;;;;;;;;;;;;;;;5035068;28;825;-71
2022/10/20 12:55:04;;;;;;;;;;;;;;;;;;5037049;28;865;-72
2022/10/20 12:57:40;;;;;;;;;;;;;;;;;;5035719;28;1011;-72
2022/10/20 13:00:06;;;;;;;;;;;;;;;;;;5017976;28;1433;-72
2022/10/20 13:02:41;;;;;;;;;;;;;;;;;;5035443;28;928;-72
2022/10/20 13:05:07;;;;;;;;;;;;;;;;;;5035781;28;1192;-72
2022/10/20 13:07:44;;;;;;;;;;;;;;;;;;5040031;28;872;-71
2022/10/20 13:10:28;;;;;;;;;;;;;;;;;;5042176;28;1896;-72
2022/10/20 13:12:59;;;;;;;;;;;;;;;;;;5044867;28;869;-71
2022/10/20 13:15:25;;;;;;;;;;;;;;;;;;5026869;28;1217;-72
2022/10/20 13:17:54;;;;;;;;;;;;;;;;;;5042859;28;869;-72
2022/10/20 13:20:40;;;;;;;;;;;;;;;;;;5041431;28;889;-71
2022/10/20 13:23:09;;;;;;;;;;;;;;;;;;5002076;28;1185;-70
2022/10/20 13:25:40;;;;;;;;;;;;;;;;;;5020515;28;1253;-72
2022/10/20 13:28:06;;;;;;;;;;;;;;;;;;5040501;28;845;-72
2022/10/20 13:30:33;;;;;;;;;;;;;;;;;;5039042;28;1898;-71
2022/10/20 13:33:01;;;;;;;;;;;;;;;;;;5018450;28;1228;-72
2022/10/20 13:35:28;;;;;;;;;;;;;;;;;;5019522;28;1101;-74
2022/10/20 13:37:58;;;;;;;;;;;;;;;;;;5018946;28;1240;-71
2022/10/20 13:40:29;;;;;;;;;;;;;;;;;;5018827;28;1247;-72
2022/10/20 13:43:01;;;;;;;;;;;;;;;;;;5036542;28;782;-71
2022/10/20 13:45:37;;;;;;;;;;;;;;;;;;5036485;28;1307;-71
2022/10/20 13:48:08;;;;;;;;;;;;;;;;;;5037709;28;846;-72
2022/10/20 13:50:39;;;;;;;;;;;;;;;;;;5016437;28;1922;-71
2022/10/20 13:53:13;;;;;;;;;;;;;;;;;;5016051;28;1334;-71
2022/10/20 13:55:53;;;;;;;;;;;;;;;;;;5033626;28;896;-71
2022/10/20 13:58:20;;;;;;;;;;;;;;;;;;5016409;28;1216;-71
2022/10/20 14:01:00;;;;;;;;;;;;;;;;;;5033347;28;982;-71
2022/10/20 14:03:25;;;;;;;;;;;;;;;;;;5015742;28;1300;-71
2022/10/20 14:05:53;;;;;;;;;;;;;;;;;;5015395;28;1375;-72
2022/10/20 14:08:18;;;;;;;;;;;;;;;;;;5015226;28;1283;-71
2022/10/20 14:10:47;;;;;;;;;;;;;;;;;;5015048;28;1958;-71
2022/10/20 14:13:14;;;;;;;;;;;;;;;;;;5034082;28;821;-72
2022/10/20 14:15:44;;;;;;;;;;;;;;;;;;5015755;28;1247;-71
2022/10/20 14:18:18;;;;;;;;;;;;;;;;;;5033684;28;909;-71
2022/10/20 14:20:52;;;;;;;;;;;;;;;;;;5033163;28;911;-71
2022/10/20 14:23:18;;;;;;;;;;;;;;;;;;5015439;28;1215;-71
2022/10/20 14:25:44;;;;;;;;;;;;;;;;;;5033547;28;1039;-72
2022/10/20 14:28:15;;;;;;;;;;;;;;;;;;5033105;28;821;-71
2022/10/20 14:30:40;;;;;;;;;;;;;;;;;;5033796;28;1965;-71
2022/10/20 14:33:10;;;;;;;;;;;;;;;;;;5016116;28;1520;-71
2022/10/20 14:35:41;;;;;;;;;;;;;;;;;;5033908;28;904;-71
2022/10/20 14:38:17;;;;;;;;;;;;;;;;;;5016329;28;1339;-72
2022/10/20 14:40:48;;;;;;;;;;;;;;;;;;5016293;28;1095;-72
2022/10/20 14:43:15;;;;;;;;;;;;;;;;;;5015617;28;1240;-72
2022/10/20 14:45:52;;;;;;;;;;;;;;;;;;5032390;28;1002;-71
2022/10/20 14:48:19;;;;;;;;;;;;;;;;;;5014804;28;1388;-72
2022/10/20 14:50:44;;;;;;;;;;;;;;;;;;5014575;28;1914;-71
2022/10/20 14:53:15;;;;;;;;;;;;;;;;;;5015428;28;1197;-72
2022/10/20 14:55:41;;;;;;;;;;;;;;;;;;5014739;28;1276;-72
2022/10/20 14:58:24;;;;;;;;;;;;;;;;;;5031316;28;1082;-72
2022/10/20 15:00:50;;;;;;;;;;;;;;;;;;5031189;28;909;-71
2022/10/20 15:03:15;;;;;;;;;;;;;;;;;;5032516;28;825;-71
2022/10/20 15:05:43;;;;;;;;;;;;;;;;;;5032311;28;929;-71
2022/10/20 15:08:14;;;;;;;;;;;;;;;;;;5014542;28;1208;-72
2022/10/20 15:10:39;;;;;;;;;;;;;;;;;;5031874;28;1902;-71
2022/10/20 15:13:05;;;;;;;;;;;;;;;;;;5032324;28;940;-72
2022/10/20 15:15:37;;;;;;;;;;;;;;;;;;5030415;28;857;-72
2022/10/20 15:18:02;;;;;;;;;;;;;;;;;;5014542;28;999;-72
2022/10/20 15:20:33;;;;;;;;;;;;;;;;;;5031983;28;924;-72
2022/10/20 15:23:14;;;;;;;;;;;;;;;;;;5013778;28;1220;-72
2022/10/20 15:25:41;;;;;;;;;;;;;;;;;;5031270;28;925;-71
2022/10/20 15:28:23;;;;;;;;;;;;;;;;;;5013754;28;1300;-72
2022/10/20 15:30:49;;;;;;;;;;;;;;;;;;5031240;28;1902;-72
2022/10/20 15:33:14;;;;;;;;;;;;;;;;;;5014437;28;1312;-72
2022/10/20 15:35:43;;;;;;;;;;;;;;;;;;5032131;28;1028;-72
2022/10/20 15:38:09;;;;;;;;;;;;;;;;;;5014645;28;1349;-72
2022/10/20 15:40:35;;;;;;;;;;;;;;;;;;5014138;28;1298;-72
2022/10/20 15:43:00;;;;;;;;;;;;;;;;;;5013155;28;1196;-72
2022/10/20 15:45:26;;;;;;;;;;;;;;;;;;5030721;28;943;-72
2022/10/20 15:47:52;;;;;;;;;;;;;;;;;;5032448;28;884;-73
2022/10/20 15:50:17;;;;;;;;;;;;;;;;;;5031370;28;1981;-71
2022/10/20 15:52:43;;;;;;;;;;;;;;;;;;5030416;28;836;-71
2022/10/20 15:55:22;;;;;;;;;;;;;;;;;;5012972;28;1311;-71
2022/10/20 15:57:48;;;;;;;;;;;;;;;;;;5032440;28;868;-71
2022/10/20 16:00:14;;;;;;;;;;;;;;;;;;5014574;28;1334;-71
2022/10/20 16:02:39;;;;;;;;;;;;;;;;;;5029379;28;987;-71
2022/10/20 16:05:05;;;;;;;;;;;;;;;;;;5030434;28;829;-71
2022/10/20 16:07:30;;;;;;;;;;;;;;;;;;5014166;28;1197;-72
2022/10/20 16:09:55;;;;;;;;;;;;;;;;;;5013555;28;1955;-72
2022/10/20 16:12:20;;;;;;;;;;;;;;;;;;5013199;28;1200;-72
2022/10/20 16:14:46;;;;;;;;;;;;;;;;;;5029596;28;1270;-71
2022/10/20 16:17:11;;;;;;;;;;;;;;;;;;5013105;28;1289;-72
2022/10/20 16:19:36;;;;;;;;;;;;;;;;;;5012818;28;1331;-72
2022/10/20 16:22:02;;;;;;;;;;;;;;;;;;5029264;28;840;-72
2022/10/20 16:24:27;;;;;;;;;;;;;;;;;;5012742;28;1113;-71
2022/10/20 16:26:53;;;;;;;;;;;;;;;;;;5012892;28;1258;-72
2022/10/20 16:29:18;;;;;;;;;;;;;;;;;;5012891;28;1414;-72
2022/10/20 16:31:43;;;;;;;;;;;;;;;;;;5012309;28;1973;-72
2022/10/20 16:34:09;;;;;;;;;;;;;;;;;;5030904;28;1066;-72
2022/10/20 16:36:34;;;;;;;;;;;;;;;;;;5030362;28;837;-72
2022/10/20 16:38:59;;;;;;;;;;;;;;;;;;5012384;28;1392;-72
2022/10/20 16:41:25;;;;;;;;;;;;;;;;;;5012882;28;1422;-73
2022/10/20 16:43:51;;;;;;;;;;;;;;;;;;5030534;28;920;-73
2022/10/20 16:46:16;;;;;;;;;;;;;;;;;;5029510;28;1077;-74
2022/10/20 16:48:41;;;;;;;;;;;;;;;;;;5028815;28;885;-73
2022/10/20 16:51:08;;;;;;;;;;;;;;;;;;5013004;28;1981;-71
2022/10/20 16:53:34;;;;;;;;;;;;;;;;;;5012276;28;1368;-72
2022/10/20 16:55:59;;;;;;;;;;;;;;;;;;5012189;28;1232;-70
2022/10/20 16:58:24;;;;;;;;;;;;;;;;;;5028878;28;842;-69
2022/10/20 17:00:57;;;;;;;;;;;;;;;;;;5028315;28;1388;-69
2022/10/20 17:03:22;;;;;;;;;;;;;;;;;;5012481;28;1197;-69
2022/10/20 17:05:54;;;;;;;;;;;;;;;;;;5029615;28;849;-69
2022/10/20 17:08:20;;;;;;;;;;;;;;;;;;5030123;28;849;-69
2022/10/20 17:10:46;;;;;;;;;;;;;;;;;;5028133;28;1914;-69
2022/10/20 17:13:11;;;;;;;;;;;;;;;;;;5028813;28;1267;-70
2022/10/20 17:15:36;;;;;;;;;;;;;;;;;;5011034;28;1227;-70
2022/10/20 17:18:02;;;;;;;;;;;;;;;;;;5011759;28;1173;-70